Time;durP1;ratioP1;P1;durP2;ratioP2;P2;SDS_P1;SDS_P2;PMS_P1;PMS_P2;Temp;Humidity;BMP_temperature;BMP_pressure;BME280_temperature;BME280_humidity;BME280_pressure;Samples;Min_cycle;Max_cycle;Signal;HPM_P1;HPM_P2
2023/09/27 00:00:11;;;;;;;;;11.67;9.67;;;;;18.97;100.00;101733.84;5055979;28;46248;-72
2023/09/27 00:02:41;;;;;;;;;14.33;12.00;;;;;18.96;100.00;101745.44;5055353;28;45541;-73
2023/09/27 00:05:07;;;;;;;;;16.00;14.00;;;;;18.94;100.00;101750.81;5055883;28;45337;-71
2023/09/27 00:07:38;;;;;;;;;12.33;10.00;;;;;18.93;100.00;101749.03;5059299;28;45477;-73
2023/09/27 00:10:09;;;;;;;;;14.00;11.00;;;;;18.94;100.00;101736.53;5056676;28;47320;-74
2023/09/27 00:12:35;;;;;;;;;14.67;12.00;;;;;18.93;100.00;101732.09;5058706;28;45213;-71
2023/09/27 00:15:03;;;;;;;;;15.00;15.00;;;;;18.93;100.00;101735.66;5052589;28;45269;-71
2023/09/27 00:17:29;;;;;;;;;16.00;13.00;;;;;18.91;100.00;101739.22;5059595;28;45265;-72
2023/09/27 00:19:55;;;;;;;;;16.33;12.67;;;;;18.91;100.00;101745.50;5058687;28;46439;-71
2023/09/27 00:22:21;;;;;;;;;13.67;12.33;;;;;18.92;100.00;101751.72;5059229;28;45332;-72
2023/09/27 00:24:46;;;;;;;;;14.67;13.33;;;;;18.95;100.00;101746.34;5059156;28;45352;-73
2023/09/27 00:27:12;;;;;;;;;15.67;15.00;;;;;18.96;100.00;101742.75;5058295;28;66289;-73
2023/09/27 00:29:37;;;;;;;;;10.33;10.33;;;;;18.94;100.00;101744.56;5053402;28;45274;-71
2023/09/27 00:32:03;;;;;;;;;13.00;12.00;;;;;18.95;100.00;101749.00;5056487;28;45289;-71
2023/09/27 00:34:29;;;;;;;;;14.00;13.00;;;;;18.94;100.00;101749.91;5059191;28;45378;-73
2023/09/27 00:36:54;;;;;;;;;11.67;10.00;;;;;18.93;100.00;101743.69;5059059;28;45517;-72
2023/09/27 00:39:19;;;;;;;;;12.67;12.67;;;;;18.93;100.00;101730.28;5059011;28;46343;-72
2023/09/27 00:41:45;;;;;;;;;14.67;13.00;;;;;18.94;100.00;101728.50;5055195;28;68944;-72
2023/09/27 00:44:10;;;;;;;;;13.00;10.33;;;;;18.94;100.00;101717.81;5057532;28;62678;-72
2023/09/27 00:46:36;;;;;;;;;14.67;12.00;;;;;18.92;100.00;101722.28;5058942;28;45500;-71
2023/09/27 00:49:02;;;;;;;;;13.33;11.00;;;;;18.88;100.00;101729.44;5058380;28;46524;-72
2023/09/27 00:51:28;;;;;;;;;15.33;12.00;;;;;18.85;100.00;101729.47;5057253;28;45561;-72
2023/09/27 00:53:54;;;;;;;;;11.00;10.67;;;;;18.88;100.00;101733.91;5058374;28;45535;-72
2023/09/27 00:56:20;;;;;;;;;11.00;11.00;;;;;18.85;100.00;101724.09;5054198;28;45675;-73
2023/09/27 00:58:45;;;;;;;;;14.33;12.00;;;;;18.83;100.00;101724.13;5034570;28;45448;-72
2023/09/27 01:01:12;;;;;;;;;16.00;12.00;;;;;18.84;100.00;101715.19;5057655;28;69280;-72
2023/09/27 01:03:38;;;;;;;;;13.00;13.00;;;;;18.84;100.00;101715.19;5050544;28;45337;-71
2023/09/27 01:06:03;;;;;;;;;15.33;13.33;;;;;18.83;100.00;101710.75;5058471;28;45314;-72
2023/09/27 01:08:29;;;;;;;;;16.00;12.00;;;;;18.82;100.00;101714.34;5039790;28;71430;-71
2023/09/27 01:10:54;;;;;;;;;13.00;12.00;;;;;18.81;100.00;101719.72;5053843;28;45461;-72
2023/09/27 01:13:20;;;;;;;;;13.00;13.00;;;;;18.78;100.00;101714.38;5058246;28;56346;-72
2023/09/27 01:15:45;;;;;;;;;18.00;14.00;;;;;18.75;100.00;101711.72;5049475;28;60164;-74
2023/09/27 01:18:11;;;;;;;;;13.33;13.00;;;;;18.74;100.00;101713.50;5056762;28;72162;-73
2023/09/27 01:20:36;;;;;;;;;13.00;11.00;;;;;18.71;100.00;101724.25;5056107;28;66992;-72
2023/09/27 01:23:03;;;;;;;;;14.00;11.00;;;;;18.71;100.00;101720.69;5049774;28;45214;-73
2023/09/27 01:25:31;;;;;;;;;12.33;11.33;;;;;18.69;100.00;101731.38;5056555;28;45318;-72
2023/09/27 01:28:05;;;;;;;;;14.00;13.33;;;;;18.66;100.00;101728.72;5054238;28;46724;-73
2023/09/27 01:30:33;;;;;;;;;10.00;10.00;;;;;18.65;100.00;101732.28;5057888;28;45422;-72
2023/09/27 01:33:00;;;;;;;;;14.67;14.33;;;;;18.64;100.00;101743.88;5058458;28;45261;-72
2023/09/27 01:35:25;;;;;;;;;10.00;10.00;;;;;18.62;100.00;101743.00;5057699;28;45130;-71
2023/09/27 01:37:50;;;;;;;;;15.33;13.00;;;;;18.60;100.00;101731.44;5054945;28;45621;-71
2023/09/27 01:40:17;;;;;;;;;12.67;10.67;;;;;18.61;100.00;101730.53;5056816;28;63182;-72
2023/09/27 01:42:43;;;;;;;;;13.33;11.00;;;;;18.60;100.00;101723.41;5049842;28;45317;-73
2023/09/27 01:45:12;;;;;;;;;13.33;10.67;;;;;18.58;100.00;101719.84;5057974;28;45644;-73
2023/09/27 01:47:38;;;;;;;;;13.00;12.00;;;;;18.56;100.00;101719.88;5040168;28;46581;-72
2023/09/27 01:50:05;;;;;;;;;12.00;11.00;;;;;18.56;100.00;101730.56;5051594;28;45416;-71
2023/09/27 01:52:30;;;;;;;;;10.67;8.67;;;;;18.61;100.00;101737.69;5054561;28;45412;-72
2023/09/27 01:54:55;;;;;;;;;10.67;10.67;;;;;18.59;100.00;101732.34;5051379;28;45411;-71
2023/09/27 01:57:21;;;;;;;;;14.33;12.00;;;;;18.59;100.00;101738.59;5051825;28;45518;-72
2023/09/27 01:59:46;;;;;;;;;13.00;11.67;;;;;18.59;100.00;101741.25;5057084;28;47444;-72
2023/09/27 02:02:11;;;;;;;;;15.00;12.00;;;;;18.59;100.00;101746.59;5036593;28;55839;-72
2023/09/27 02:04:37;;;;;;;;;12.67;12.67;;;;;18.57;100.00;101743.03;5054734;28;62788;-72
2023/09/27 02:07:02;;;;;;;;;17.33;10.67;;;;;18.57;100.00;101736.81;5056087;28;69086;-73
2023/09/27 02:09:27;;;;;;;;;12.67;12.67;;;;;18.59;100.00;101727.00;5054803;28;64592;-74
2023/09/27 02:11:52;;;;;;;;;12.00;12.00;;;;;18.59;100.00;101727.00;5057224;28;62875;-73
2023/09/27 02:14:18;;;;;;;;;14.67;13.00;;;;;18.57;100.00;101720.75;5056137;28;58294;-73
2023/09/27 02:16:46;;;;;;;;;17.67;15.00;;;;;18.56;100.00;101722.53;5057058;28;45766;-72
2023/09/27 02:19:12;;;;;;;;;16.67;13.67;;;;;18.56;100.00;101716.31;5056965;28;45447;-72
2023/09/27 02:21:38;;;;;;;;;14.33;12.33;;;;;18.54;100.00;101715.44;5057434;28;45427;-73
2023/09/27 02:24:04;;;;;;;;;14.67;12.00;;;;;18.52;100.00;101715.44;5056898;28;45267;-73
2023/09/27 02:26:30;;;;;;;;;12.33;12.33;;;;;18.50;100.00;101719.03;5057208;28;45695;-73
2023/09/27 02:28:55;;;;;;;;;11.67;10.00;;;;;18.49;100.00;101714.59;5055213;28;64996;-72
2023/09/27 02:31:20;;;;;;;;;16.67;12.67;;;;;18.47;100.00;101705.66;5056518;28;54492;-71
2023/09/27 02:33:45;;;;;;;;;14.33;13.00;;;;;18.49;100.00;101714.59;5056830;28;51100;-72
2023/09/27 02:36:11;;;;;;;;;13.33;11.00;;;;;18.48;100.00;101720.81;5056124;28;66023;-73
2023/09/27 02:38:36;;;;;;;;;16.00;12.33;;;;;18.45;100.00;101726.22;5056266;28;69842;-71
2023/09/27 02:41:02;;;;;;;;;16.00;14.67;;;;;18.45;100.00;101723.53;5054403;28;45380;-72
2023/09/27 02:43:27;;;;;;;;;17.33;15.00;;;;;18.42;100.00;101720.88;5057098;28;45394;-72
2023/09/27 02:45:53;;;;;;;;;13.00;12.00;;;;;18.42;100.00;101719.06;5055875;28;72829;-71
2023/09/27 02:48:18;;;;;;;;;12.00;12.00;;;;;18.39;100.00;101723.56;5051265;28;45310;-72
2023/09/27 02:50:52;;;;;;;;;12.33;11.00;;;;;18.41;100.00;101725.31;5054179;28;62544;-71
2023/09/27 02:53:17;;;;;;;;;14.67;13.00;;;;;18.41;100.00;101728.00;5057065;28;45336;-71
2023/09/27 02:55:43;;;;;;;;;12.00;12.00;;;;;18.41;100.00;101730.69;5038538;28;46433;-71
2023/09/27 02:58:08;;;;;;;;;15.00;12.33;;;;;18.41;100.00;101732.47;5056490;28;62452;-73
2023/09/27 03:00:34;;;;;;;;;13.00;12.00;;;;;18.39;100.00;101727.13;5055579;28;66446;-71
2023/09/27 03:03:00;;;;;;;;;11.67;11.33;;;;;18.38;100.00;101714.66;5057087;28;45273;-72
2023/09/27 03:05:26;;;;;;;;;15.67;14.00;;;;;18.37;100.00;101718.22;5056119;28;45839;-72
2023/09/27 03:07:51;;;;;;;;;15.33;11.00;;;;;18.42;100.00;101715.50;5056551;28;45829;-73
2023/09/27 03:10:18;;;;;;;;;18.33;14.67;;;;;18.37;100.00;101709.31;5056727;28;45423;-71
2023/09/27 03:12:47;;;;;;;;;11.00;10.67;;;;;18.35;100.00;101701.31;5057074;28;45441;-72
2023/09/27 03:15:12;;;;;;;;;12.67;11.00;;;;;18.42;100.00;101702.16;5056167;28;46715;-72
2023/09/27 03:17:39;;;;;;;;;16.33;14.00;;;;;18.44;100.00;101703.94;5056528;28;45541;-72
2023/09/27 03:20:07;;;;;;;;;10.67;10.67;;;;;18.38;100.00;101695.06;5056125;28;45430;-72
2023/09/27 03:22:33;;;;;;;;;14.00;12.67;;;;;18.37;100.00;101698.63;5056114;28;45409;-72
2023/09/27 03:24:58;;;;;;;;;15.00;13.00;;;;;18.35;100.00;101701.31;5055366;28;72956;-73
2023/09/27 03:27:24;;;;;;;;;13.00;12.00;;;;;18.35;100.00;101700.44;5055663;28;70327;-72
2023/09/27 03:29:50;;;;;;;;;16.67;14.00;;;;;18.31;100.00;101695.09;5055963;28;45411;-71
2023/09/27 03:32:15;;;;;;;;;13.33;12.00;;;;;18.33;100.00;101693.31;5050319;28;45296;-73
2023/09/27 03:34:41;;;;;;;;;14.00;12.00;;;;;18.35;100.00;101684.38;5056399;28;46471;-72
2023/09/27 03:37:06;;;;;;;;;12.33;12.33;;;;;18.33;100.00;101687.06;5054899;28;67207;-72
2023/09/27 03:39:35;;;;;;;;;15.67;13.67;;;;;18.31;100.00;101673.69;5054116;28;65142;-72
2023/09/27 03:42:04;;;;;;;;;14.67;13.00;;;;;18.30;100.00;101677.28;5058715;28;45482;-72
2023/09/27 03:44:29;;;;;;;;;12.00;12.00;;;;;18.28;100.00;101681.75;5059952;28;45830;-73
2023/09/27 03:46:54;;;;;;;;;12.00;11.00;;;;;18.29;100.00;101678.19;5059503;28;45252;-72
2023/09/27 03:49:20;;;;;;;;;16.00;12.00;;;;;18.26;100.00;101670.16;5058966;28;55540;-71
2023/09/27 03:51:46;;;;;;;;;13.00;12.00;;;;;18.25;100.00;101679.09;5055598;28;45461;-71
2023/09/27 03:54:11;;;;;;;;;14.00;13.00;;;;;18.23;100.00;101667.53;5056345;28;67951;-71
2023/09/27 03:56:37;;;;;;;;;15.33;14.33;;;;;18.26;100.00;101674.63;5053418;28;66009;-72
2023/09/27 03:59:02;;;;;;;;;15.33;13.00;;;;;18.25;100.00;101671.06;5056369;28;64963;-73
2023/09/27 04:01:27;;;;;;;;;15.67;12.67;;;;;18.21;100.00;101668.44;5057897;28;61110;-72
2023/09/27 04:03:53;;;;;;;;;12.33;12.33;;;;;18.17;100.00;101664.03;5059075;28;58262;-73
2023/09/27 04:06:19;;;;;;;;;15.33;13.33;;;;;18.16;100.00;101664.91;5056517;28;52939;-71
2023/09/27 04:08:44;;;;;;;;;13.67;13.67;;;;;18.15;100.00;101655.09;5059155;28;45482;-72
2023/09/27 04:11:09;;;;;;;;;14.00;12.67;;;;;18.13;100.00;101656.91;5053668;28;63831;-73
2023/09/27 04:13:35;;;;;;;;;17.33;13.00;;;;;18.13;100.00;101649.78;5059031;28;47359;-73
2023/09/27 04:16:01;;;;;;;;;17.67;14.00;;;;;18.11;100.00;101659.63;5041126;28;45383;-71
2023/09/27 04:18:27;;;;;;;;;16.00;15.00;;;;;18.13;100.00;101663.16;5058912;28;45363;-71
2023/09/27 04:20:52;;;;;;;;;15.67;15.00;;;;;18.11;100.00;101656.03;5059315;28;45474;-71
2023/09/27 04:23:18;;;;;;;;;16.00;15.00;;;;;18.11;100.00;101662.28;5058550;28;61999;-72
2023/09/27 04:25:43;;;;;;;;;18.00;16.67;;;;;18.08;100.00;101656.06;5057637;28;45221;-71
2023/09/27 04:28:10;;;;;;;;;17.67;17.33;;;;;18.06;100.00;101650.75;5059323;28;45154;-71
2023/09/27 04:30:35;;;;;;;;;21.00;18.00;;;;;18.06;100.00;101642.72;5058681;28;45372;-71
2023/09/27 04:33:00;;;;;;;;;22.67;19.33;;;;;18.02;100.00;101631.16;5058212;28;66751;-73
2023/09/27 04:35:26;;;;;;;;;22.25;19.50;;;;;18.00;100.00;101642.72;5056814;28;45466;-72
2023/09/27 04:37:51;;;;;;;;;22.75;20.75;;;;;17.99;100.00;101638.28;5058373;28;66883;-72
2023/09/27 04:40:17;;;;;;;;;27.67;21.67;;;;;18.00;100.00;101645.41;5054146;28;56004;-72
2023/09/27 04:42:43;;;;;;;;;22.75;20.00;;;;;17.96;100.00;101644.56;5058883;28;45325;-73
2023/09/27 04:45:10;;;;;;;;;28.00;23.25;;;;;17.95;100.00;101641.88;5051803;28;45609;-73
2023/09/27 04:47:36;;;;;;;;;21.00;20.33;;;;;17.92;100.00;101626.75;5050532;28;45376;-72
2023/09/27 04:50:01;;;;;;;;;21.50;20.00;;;;;17.89;100.00;101626.78;5058449;28;45473;-72
2023/09/27 04:52:26;;;;;;;;;22.00;22.00;;;;;17.87;100.00;101625.91;5058016;28;45969;-72
2023/09/27 04:54:56;;;;;;;;;24.50;21.50;;;;;17.85;100.00;101624.16;5058358;28;47067;-72
2023/09/27 04:57:22;;;;;;;;;23.25;19.75;;;;;17.84;100.00;101619.69;5058696;28;45246;-72
2023/09/27 04:59:48;;;;;;;;;22.00;21.50;;;;;17.76;100.00;101620.63;5058255;28;45517;-72
2023/09/27 05:02:13;;;;;;;;;24.33;23.00;;;;;17.74;100.00;101619.75;5058507;28;45500;-73
2023/09/27 05:04:39;;;;;;;;;24.00;23.00;;;;;17.74;100.00;101621.56;5055317;28;45570;-73
2023/09/27 05:07:04;;;;;;;;;25.00;22.75;;;;;17.74;100.00;101622.44;5053125;28;61543;-73
2023/09/27 05:09:30;;;;;;;;;25.00;23.00;;;;;17.69;100.00;101624.22;5055337;28;45521;-72
2023/09/27 05:11:55;;;;;;;;;25.25;23.00;;;;;17.68;100.00;101637.56;5057602;28;45824;-71
2023/09/27 05:14:20;;;;;;;;;27.33;23.67;;;;;17.68;100.00;101635.75;5056622;28;69111;-73
2023/09/27 05:16:46;;;;;;;;;26.50;22.75;;;;;17.67;100.00;101634.00;5056467;28;63864;-72
2023/09/27 05:19:12;;;;;;;;;26.75;20.50;;;;;17.66;100.00;101624.22;5056441;28;63315;-71
2023/09/27 05:21:38;;;;;;;;;21.67;21.33;;;;;17.64;100.00;101628.69;5057566;28;45545;-72
2023/09/27 05:24:03;;;;;;;;;23.75;21.00;;;;;17.61;100.00;101628.69;5048177;28;45533;-72
2023/09/27 05:26:28;;;;;;;;;27.50;23.75;;;;;17.56;100.00;101633.16;5056936;28;45511;-72
2023/09/27 05:28:55;;;;;;;;;28.75;25.00;;;;;17.57;100.00;101648.28;5057612;28;57995;-71
2023/09/27 05:31:20;;;;;;;;;28.00;23.00;;;;;17.54;100.00;101646.53;5054871;28;46668;-74
2023/09/27 05:33:45;;;;;;;;;27.25;23.50;;;;;17.54;100.00;101651.00;5049611;28;67297;-72
2023/09/27 05:36:11;;;;;;;;;24.00;24.00;;;;;17.52;100.00;101658.09;5055716;28;45489;-72
2023/09/27 05:38:36;;;;;;;;;25.75;22.00;;;;;17.52;100.00;101668.78;5057531;28;45483;-74
2023/09/27 05:41:01;;;;;;;;;26.75;22.75;;;;;17.52;100.00;101656.34;5057308;28;57519;-71
2023/09/27 05:43:26;;;;;;;;;28.50;24.50;;;;;17.47;100.00;101663.50;5053814;28;66466;-72
2023/09/27 05:45:52;;;;;;;;;23.75;23.75;;;;;17.47;100.00;101667.91;5055554;28;51685;-72
2023/09/27 05:48:17;;;;;;;;;24.50;23.00;;;;;17.47;100.00;101663.50;5057208;28;45241;-71
2023/09/27 05:50:46;;;;;;;;;33.00;27.75;;;;;17.46;100.00;101663.47;5051222;28;70363;-72
2023/09/27 05:53:12;;;;;;;;;26.75;24.75;;;;;17.46;100.00;101663.47;5053205;28;45296;-74
2023/09/27 05:55:39;;;;;;;;;21.50;19.75;;;;;17.44;100.00;101662.59;5056885;28;45391;-74
2023/09/27 05:58:05;;;;;;;;;25.00;25.00;;;;;17.45;100.00;101656.38;5045404;28;45555;-72
2023/09/27 06:00:37;;;;;;;;;28.00;24.00;;;;;17.48;100.00;101672.38;5057864;28;45447;-71
2023/09/27 06:03:04;;;;;;;;;26.25;21.75;;;;;17.48;100.00;101675.06;5056280;28;45387;-73
2023/09/27 06:05:29;;;;;;;;;26.50;22.50;;;;;17.50;100.00;101678.59;5056377;28;45327;-74
2023/09/27 06:07:55;;;;;;;;;28.00;24.75;;;;;17.48;100.00;101691.97;5054685;28;45508;-73
2023/09/27 06:10:21;;;;;;;;;26.50;21.75;;;;;17.45;100.00;101699.09;5049704;28;68627;-72
2023/09/27 06:12:46;;;;;;;;;24.50;24.50;;;;;17.39;100.00;101705.34;5050110;28;45550;-73
2023/09/27 06:15:15;;;;;;;;;26.50;24.25;;;;;17.36;100.00;101707.13;5055376;28;64115;-71
2023/09/27 06:17:42;;;;;;;;;30.75;24.00;;;;;17.37;100.00;101706.25;5052878;28;45313;-73
2023/09/27 06:20:11;;;;;;;;;27.50;24.25;;;;;17.36;100.00;101709.78;5054091;28;46625;-73
2023/09/27 06:22:37;;;;;;;;;30.25;28.25;;;;;17.40;100.00;101711.56;5047723;28;45546;-74
2023/09/27 06:25:04;;;;;;;;;30.00;28.25;;;;;17.43;100.00;101719.56;5053549;28;46030;-73
2023/09/27 06:27:29;;;;;;;;;24.75;23.00;;;;;17.42;100.00;101715.13;5054367;28;45610;-73
2023/09/27 06:29:54;;;;;;;;;25.75;23.00;;;;;17.42;100.00;101715.13;5054434;28;64441;-72
2023/09/27 06:32:22;;;;;;;;;26.75;25.75;;;;;17.42;100.00;101708.00;5045731;28;70088;-72
2023/09/27 06:34:47;;;;;;;;;33.75;29.75;;;;;17.45;100.00;101723.13;5052497;28;45521;-70
2023/09/27 06:37:13;;;;;;;;;28.00;26.75;;;;;17.52;100.00;101727.53;5044371;28;60227;-70
2023/09/27 06:39:41;;;;;;;;;31.00;24.50;;;;;17.59;100.00;101726.63;5041375;28;47297;-70
2023/09/27 06:42:07;;;;;;;;;30.75;28.25;;;;;17.65;100.00;101723.94;5045025;28;45460;-71
2023/09/27 06:44:33;;;;;;;;;33.00;26.75;;;;;17.77;100.00;101728.38;5037387;28;45491;-70
2023/09/27 06:46:59;;;;;;;;;29.75;26.00;;;;;17.85;100.00;101725.69;5051758;28;45712;-72
2023/09/27 06:49:24;;;;;;;;;29.25;26.75;;;;;17.93;100.00;101729.19;5053053;28;46553;-72
2023/09/27 06:51:50;;;;;;;;;34.00;27.75;;;;;18.01;100.00;101725.59;5051050;28;65971;-74
2023/09/27 06:54:15;;;;;;;;;28.50;23.00;;;;;18.09;100.00;101725.53;5053966;28;45546;-72
2023/09/27 06:56:41;;;;;;;;;33.50;24.00;;;;;18.20;100.00;101720.13;5049309;28;45586;-74
2023/09/27 06:59:07;;;;;;;;;24.75;22.00;;;;;18.28;100.00;101707.59;5050705;28;71120;-74
2023/09/27 07:01:33;;;;;;;;;26.00;21.67;;;;;18.41;100.00;101711.97;5052167;28;45755;-73
2023/09/27 07:03:58;;;;;;;;;27.25;24.25;;;;;18.48;100.00;101712.78;5049416;28;45752;-73
2023/09/27 07:06:23;;;;;;;;;28.50;23.00;;;;;18.56;100.00;101711.84;5045255;28;46373;-73
2023/09/27 07:08:52;;;;;;;;;31.00;26.50;;;;;18.63;100.00;101706.44;5051534;28;45788;-73
2023/09/27 07:11:19;;;;;;;;;37.50;29.25;;;;;18.72;100.00;101698.38;5049566;28;45587;-74
2023/09/27 07:13:45;;;;;;;;;29.00;26.25;;;;;18.77;100.00;101689.41;5046415;28;45385;-73
2023/09/27 07:16:28;;;;;;;;;27.00;24.25;;;;;18.87;100.00;101690.22;5050139;28;45593;-72
2023/09/27 07:18:54;;;;;;;;;27.00;25.75;;;;;18.97;100.00;101691.91;5051617;28;47368;-72
2023/09/27 07:21:24;;;;;;;;;29.75;27.50;;;;;19.03;100.00;101696.31;5051194;28;45918;-72
2023/09/27 07:23:51;;;;;;;;;31.75;28.25;;;;;19.11;100.00;101687.28;5051940;28;45474;-72
2023/09/27 07:26:18;;;;;;;;;34.25;30.00;;;;;19.17;100.00;101690.78;5054808;28;45670;-72
2023/09/27 07:28:45;;;;;;;;;38.50;29.50;;;;;19.22;100.00;101699.66;5051533;28;46504;-72
2023/09/27 07:31:12;;;;;;;;;32.25;27.75;;;;;19.29;100.00;101690.69;5059156;28;46212;-71
2023/09/27 07:33:37;;;;;;;;;32.75;26.75;;;;;19.36;100.00;101685.22;5050136;28;45455;-74
2023/09/27 07:36:04;;;;;;;;;29.25;26.25;;;;;19.47;100.00;101698.47;5046608;28;45664;-72
2023/09/27 07:38:30;;;;;;;;;34.75;30.75;;;;;19.52;100.00;101696.63;5050207;28;47672;-73
2023/09/27 07:40:55;;;;;;;;;41.00;30.25;;;;;19.56;100.00;101689.47;5050592;28;69545;-72
2023/09/27 07:43:21;;;;;;;;;39.75;32.50;;;;;19.62;100.00;101692.09;5049074;28;45606;-73
2023/09/27 07:45:47;;;;;;;;;36.75;31.75;;;;;19.65;100.00;101689.34;5048797;28;45452;-73
2023/09/27 07:48:13;;;;;;;;;37.25;30.00;;;;;19.72;100.00;101684.84;5052516;28;46352;-73
2023/09/27 07:50:39;;;;;;;;;30.75;28.00;;;;;19.81;100.00;101676.66;5051815;28;68543;-73
2023/09/27 07:53:06;;;;;;;;;41.75;30.50;;;;;19.85;100.00;101679.25;5033635;28;45441;-74
2023/09/27 07:55:32;;;;;;;;;37.25;30.50;;;;;19.98;100.00;101679.13;5048179;28;45459;-73
2023/09/27 07:57:59;;;;;;;;;37.25;33.00;;;;;20.01;100.00;101668.31;5034837;28;46377;-73
2023/09/27 08:00:30;;;;;;;;;36.00;30.00;;;;;20.11;100.00;101669.97;5040748;28;45284;-73
2023/09/27 08:02:57;;;;;;;;;31.00;28.50;;;;;20.19;100.00;101676.13;5048429;28;45540;-74
2023/09/27 08:05:23;;;;;;;;;29.00;28.00;;;;;20.28;100.00;101672.38;5052984;28;45461;-72
2023/09/27 08:07:49;;;;;;;;;24.25;21.25;;;;;20.38;100.00;101669.53;5044678;28;45550;-74
2023/09/27 08:10:15;;;;;;;;;37.00;29.50;;;;;20.44;100.00;101656.94;5051493;28;69557;-73
2023/09/27 08:12:41;;;;;;;;;30.50;27.75;;;;;20.53;100.00;101660.38;5052995;28;45474;-74
2023/09/27 08:15:07;;;;;;;;;33.00;26.50;;;;;20.55;100.00;101652.28;5148092;22;45557;-72
2023/09/27 08:17:33;;;;;;;;;30.50;27.50;;;;;20.62;100.00;101645.94;5011883;28;45539;-72
2023/09/27 08:20:07;;;;;;;;;35.75;30.25;;;;;20.67;100.00;101644.06;5009572;28;45447;-74
2023/09/27 08:22:34;;;;;;;;;26.00;25.33;;;;;20.72;100.00;101642.19;5013547;28;45381;-72
2023/09/27 08:25:00;;;;;;;;;29.75;27.00;;;;;20.73;100.00;101633.22;5009502;28;45459;-72
2023/09/27 08:27:26;;;;;;;;;33.33;24.33;;;;;20.79;100.00;101634.88;5010388;28;45700;-74
2023/09/27 08:29:52;;;;;;;;;27.00;25.00;;;;;20.87;100.00;101635.63;5008501;28;46354;-74
2023/09/27 08:32:17;;;;;;;;;34.00;28.33;;;;;20.93;100.00;101631.03;5013784;28;45359;-73
2023/09/27 08:34:42;;;;;;;;;28.00;24.67;;;;;21.00;100.00;101622.88;5016709;28;45549;-75
2023/09/27 08:37:11;;;;;;;;;28.00;27.67;;;;;21.09;100.00;101611.91;5015242;28;45854;-75
2023/09/27 08:39:36;;;;;;;;;29.33;25.67;;;;;21.16;100.00;101610.91;5014164;28;45556;-75
2023/09/27 08:42:02;;;;;;;;;20.67;17.33;;;;;21.29;100.00;101607.03;4998899;28;45453;-73
2023/09/27 08:44:27;;;;;;;;;31.67;26.67;;;;;21.37;100.00;101589.00;5002198;28;45528;-75
2023/09/27 08:46:55;;;;;;;;;32.00;28.33;;;;;21.40;100.00;101586.22;5007826;28;45728;-74
2023/09/27 08:49:20;;;;;;;;;31.67;26.00;;;;;21.53;100.00;101577.91;5012442;28;45372;-73
2023/09/27 08:51:46;;;;;;;;;28.33;26.00;;;;;21.61;100.00;101575.91;5009813;28;55549;-74
2023/09/27 08:54:16;;;;;;;;;23.33;22.00;;;;;21.67;100.00;101573.97;5001684;28;45459;-75
2023/09/27 08:56:47;;;;;;;;;21.00;16.33;;;;;21.77;100.00;101563.00;5014474;28;47401;-73
2023/09/27 08:59:12;;;;;;;;;22.67;16.67;;;;;21.86;100.00;101560.09;5014693;28;45436;-74
2023/09/27 09:01:38;;;;;;;;;25.00;16.67;;;;;21.94;100.00;101558.09;5011237;28;45531;-73
2023/09/27 09:04:04;;;;;;;;;15.00;15.00;;;;;22.05;100.00;101552.44;5004186;28;45688;-74
2023/09/27 09:06:30;;;;;;;;;14.33;11.00;;;;;22.12;100.00;101552.31;5017848;28;46354;-75
2023/09/27 09:08:55;;;;;;;;;15.67;15.67;;;;;22.19;100.00;101548.53;5000132;28;65220;-74
2023/09/27 09:11:22;;;;;;;;;16.00;14.67;;;;;22.21;100.00;101545.78;5011171;28;66434;-76
2023/09/27 09:13:57;;;;;;;;;15.33;12.67;;;;;22.22;100.00;101535.00;5004650;28;45609;-74
2023/09/27 09:16:23;;;;;;;;;13.33;11.67;;;;;22.20;100.00;101526.06;5007133;28;47013;-75
2023/09/27 09:18:51;;;;;;;;;20.33;14.00;;;;;22.22;100.00;101523.38;5009387;28;45381;-74
2023/09/27 09:21:18;;;;;;;;;13.00;13.00;;;;;22.22;100.00;101531.44;5013055;28;45464;-75
2023/09/27 09:23:48;;;;;;;;;14.67;13.67;;;;;22.26;100.00;101535.78;5003754;28;45389;-76
2023/09/27 09:26:25;;;;;;;;;13.67;13.67;;;;;22.29;100.00;101530.34;5011124;28;47714;-75
2023/09/27 09:28:59;;;;;;;;;14.00;12.33;;;;;22.35;100.00;101540.94;5012161;28;45503;-75
2023/09/27 09:31:28;;;;;;;;;7.00;7.00;;;;;22.41;100.00;101542.59;5016866;28;45476;-73
2023/09/27 09:34:08;;;;;;;;;8.00;8.00;;;;;22.47;100.00;101531.66;5016677;28;45459;-74
2023/09/27 09:36:34;;;;;;;;;17.00;13.00;;;;;22.57;100.00;101534.97;5013687;28;46630;-76
2023/09/27 09:39:17;;;;;;;;;18.67;14.33;;;;;22.64;100.00;101539.28;5017122;28;45563;-76
2023/09/27 09:41:46;;;;;;;;;17.67;13.67;;;;;22.71;100.00;101530.09;5011462;28;45313;-74
2023/09/27 09:44:22;;;;;;;;;14.67;11.67;;;;;22.81;100.00;101537.00;5010570;28;45575;-76
2023/09/27 09:46:49;;;;;;;;;13.00;9.67;;;;;22.90;100.00;101531.34;5015513;28;46625;-73
2023/09/27 09:49:15;;;;;;;;;13.33;11.33;;;;;22.95;100.00;101533.91;5009832;28;45544;-74
2023/09/27 09:51:48;;;;;;;;;11.67;11.67;;;;;22.99;100.00;101528.41;5007875;28;45453;-74
2023/09/27 09:54:21;;;;;;;;;12.00;11.00;;;;;23.04;100.00;101514.81;5014100;28;45600;-74
2023/09/27 09:56:48;;;;;;;;;15.33;9.67;;;;;23.13;100.00;101514.53;5005336;28;47345;-75
2023/09/27 09:59:15;;;;;;;;;9.33;8.00;;;;;23.19;100.00;101508.97;5011380;28;46445;-74
2023/09/27 10:01:42;;;;;;;;;18.00;11.33;;;;;23.25;100.00;101491.72;4980497;28;45369;-74
2023/09/27 10:04:08;;;;;;;;;10.67;10.00;;;;;23.31;100.00;101493.34;5007905;28;45667;-73
2023/09/27 10:06:33;;;;;;;;;10.33;9.00;;;;;23.39;100.00;101478.69;5014697;28;70669;-74
2023/09/27 10:09:05;;;;;;;;;14.67;12.67;;;;;23.49;100.00;101472.09;5010584;28;45452;-74
2023/09/27 10:11:32;;;;;;;;;13.33;12.00;;;;;23.58;100.00;101459.22;5015823;28;45672;-75
2023/09/27 10:13:59;;;;;;;;;23.33;14.67;;;;;23.67;100.00;101453.56;5012422;28;45417;-76
2023/09/27 10:16:25;;;;;;;;;11.67;11.67;;;;;23.74;100.00;101442.50;5010932;28;47406;-75
2023/09/27 10:18:53;;;;;;;;;12.33;8.00;;;;;23.83;100.00;101433.22;4997130;28;69948;-75
2023/09/27 10:21:19;;;;;;;;;15.33;11.00;;;;;23.90;100.00;101434.78;5017847;28;45495;-74
2023/09/27 10:23:45;;;;;;;;;7.67;7.33;;;;;23.96;100.00;101439.94;5013342;28;64027;-74
2023/09/27 10:26:36;;;;;;;;;8.33;8.33;;;;;24.02;100.00;101439.75;5011577;28;46382;-76
2023/09/27 10:29:03;;;;;;;;;8.33;8.33;;;;;24.12;100.00;101420.53;5012528;28;45588;-75
2023/09/27 10:31:30;;;;;;;;;9.00;9.00;;;;;24.21;100.00;101426.47;5015184;28;45511;-74
2023/09/27 10:33:55;;;;;;;;;11.67;9.33;;;;;24.29;100.00;101426.22;5018260;28;45670;-73
2023/09/27 10:36:20;;;;;;;;;10.67;10.33;;;;;24.41;100.00;101417.69;5017967;28;71877;-72
2023/09/27 10:38:48;;;;;;;;;10.00;8.00;;;;;24.52;100.00;101426.25;5014699;28;45511;-74
2023/09/27 10:41:32;;;;;;;;;10.00;9.00;;;;;24.69;100.00;101428.31;5013817;28;45451;-72
2023/09/27 10:43:58;;;;;;;;;4.67;4.67;;;;;24.85;100.00;101435.84;5017492;28;45392;-74
2023/09/27 10:46:24;;;;;;;;;8.67;7.67;;;;;24.96;100.00;101434.47;5021122;28;45375;-76
2023/09/27 10:48:54;;;;;;;;;10.00;7.00;;;;;25.07;100.00;101429.56;5011253;28;45384;-72
2023/09/27 10:51:20;;;;;;;;;7.00;7.00;;;;;25.22;100.00;101425.38;5013923;28;45495;-73
2023/09/27 10:53:46;;;;;;;;;11.33;7.67;;;;;25.31;100.00;101411.47;5015139;28;45512;-74
2023/09/27 10:56:11;;;;;;;;;11.33;10.67;;;;;25.45;100.00;101421.69;5014273;28;45574;-73
2023/09/27 10:58:49;;;;;;;;;8.00;8.00;;;;;25.55;100.00;101405.97;5007902;28;45403;-75